Orange Beach, Alabama
Current Conditions -  °F | °C
As of 11:55 AM on Friday 24 Oct 2014 (Local Time) from KJKA Reporting Station
Clear Clear  
Wind Chill: 72°   Ceiling: Unl
Heat Index: 72°   Visibility: 10mi
Dew Point: 44°   Wind: 0mph
Humidity: 38%   Direction: NA
Pressure: 30.07"   Gusts: NA
Location:  30.29°N, 87.57°W
Report Text: KJKA 241655Z AUTO 00000KT 10SM CLR 22/07 A3007 RMK AO2 T02200069
Loading
Personal Weather Stations






























Interactive Weather Map New forecast layout! Learn more

10-Day Weather Forecast

Advertisements
Track Severe Weather on mobile